Time;durP1;ratioP1;P1;durP2;ratioP2;P2;SDS_P1;SDS_P2;PMS_P1;PMS_P2;Temp;Humidity;BMP_temperature;BMP_pressure;BME280_temperature;BME280_humidity;BME280_pressure;Samples;Min_cycle;Max_cycle;Signal;HPM_P1;HPM_P2
2024/03/18 00:00:12;;;;;;;;;;;;;;;;;;422201;23;961;-86
2024/03/18 00:00:22;;;;;;;;;;;;;;;;;;419977;23;1317;-86
2024/03/18 00:00:32;;;;;;;;;;;;;;;;;;420135;23;1233;-87
2024/03/18 00:00:43;;;;;;;;;;;;;;;;;;421966;23;918;-85
2024/03/18 00:00:55;;;;;;;;;;;;;;;;;;420364;23;1021;-86
2024/03/18 00:01:05;;;;;;;;;;;;;;;;;;420036;23;1029;-86
2024/03/18 00:01:16;;;;;;;;;;;;;;;;;;422354;23;1268;-86
2024/03/18 00:01:26;;;;;;;;;;;;;;;;;;421939;23;938;-86
2024/03/18 00:01:36;;;;;;;;;;;;;;;;;;422304;23;1165;-86
2024/03/18 00:01:47;;;;;;;;;;;;;;;;;;424208;23;1013;-86
2024/03/18 00:01:57;;;;;;;;;;;;;;;;;;419935;23;1427;-85
2024/03/18 00:02:07;;;;;;;;;;;;;;;;;;420020;23;1018;-87
2024/03/18 00:02:17;;;;;;;;;;;;;;;;;;422215;23;1269;-87
2024/03/18 00:02:28;;;;;;;;;;;;;;;;;;420164;23;942;-87
2024/03/18 00:02:38;;;;;;;;;;;;;;;;;;422360;23;1271;-87
2024/03/18 00:02:50;;;;;;;;;;;;;;;;;;422091;23;946;-87
2024/03/18 00:03:00;;;;;;;;;;;;;;;;;;420353;23;1307;-87
2024/03/18 00:03:10;;;;;;;;;;;;;;;;;;415935;23;1298;-86
2024/03/18 00:03:21;;;;;;;;;;;;;;;;;;418310;23;1079;-86
2024/03/18 00:03:31;;;;;;;;;;;;;;;;;;418141;23;986;-86
2024/03/18 00:03:41;;;;;;;;;;;;;;;;;;417483;23;729;-87
2024/03/18 00:03:52;;;;;;;;;;;;;;;;;;416155;23;1335;-87
2024/03/18 00:04:02;;;;;;;;;;;;;;;;;;414101;23;1045;-86
2024/03/18 00:04:12;;;;;;;;;;;;;;;;;;414249;23;999;-86
2024/03/18 00:04:22;;;;;;;;;;;;;;;;;;416165;23;1183;-86
2024/03/18 00:04:32;;;;;;;;;;;;;;;;;;416176;23;803;-86
2024/03/18 00:04:43;;;;;;;;;;;;;;;;;;417055;23;967;-86
2024/03/18 00:04:53;;;;;;;;;;;;;;;;;;420137;23;934;-87
2024/03/18 00:05:04;;;;;;;;;;;;;;;;;;420181;23;965;-87
2024/03/18 00:05:15;;;;;;;;;;;;;;;;;;424064;23;1441;-86
2024/03/18 00:05:26;;;;;;;;;;;;;;;;;;424377;23;969;-86
2024/03/18 00:05:36;;;;;;;;;;;;;;;;;;419963;23;1337;-86
2024/03/18 00:05:46;;;;;;;;;;;;;;;;;;419751;23;1313;-86
2024/03/18 00:05:56;;;;;;;;;;;;;;;;;;419870;23;1229;-86
2024/03/18 00:06:06;;;;;;;;;;;;;;;;;;420397;23;1013;-86
2024/03/18 00:06:17;;;;;;;;;;;;;;;;;;418235;23;990;-87
2024/03/18 00:06:27;;;;;;;;;;;;;;;;;;418393;23;939;-86
2024/03/18 00:06:37;;;;;;;;;;;;;;;;;;420232;23;994;-86
2024/03/18 00:06:48;;;;;;;;;;;;;;;;;;424119;23;930;-86
2024/03/18 00:06:58;;;;;;;;;;;;;;;;;;426061;23;1273;-85
2024/03/18 00:07:09;;;;;;;;;;;;;;;;;;424243;23;922;-86
2024/03/18 00:07:19;;;;;;;;;;;;;;;;;;422261;23;1885;-87
2024/03/18 00:07:30;;;;;;;;;;;;;;;;;;420379;23;883;-87
2024/03/18 00:07:40;;;;;;;;;;;;;;;;;;420309;23;803;-87
2024/03/18 00:07:50;;;;;;;;;;;;;;;;;;417757;23;1352;-87
2024/03/18 00:08:01;;;;;;;;;;;;;;;;;;420078;23;1482;-86
2024/03/18 00:08:11;;;;;;;;;;;;;;;;;;418210;23;1174;-86
2024/03/18 00:08:21;;;;;;;;;;;;;;;;;;420369;23;1342;-87
2024/03/18 00:08:32;;;;;;;;;;;;;;;;;;420029;23;1349;-86
2024/03/18 00:08:42;;;;;;;;;;;;;;;;;;420381;23;804;-87
2024/03/18 00:08:52;;;;;;;;;;;;;;;;;;419985;23;1291;-87
2024/03/18 00:09:02;;;;;;;;;;;;;;;;;;420294;23;1054;-87
2024/03/18 00:09:12;;;;;;;;;;;;;;;;;;420039;23;1260;-87
2024/03/18 00:09:23;;;;;;;;;;;;;;;;;;422379;23;1176;-87
2024/03/18 00:09:33;;;;;;;;;;;;;;;;;;421978;23;1450;-86
2024/03/18 00:09:43;;;;;;;;;;;;;;;;;;422365;23;927;-86
2024/03/18 00:09:54;;;;;;;;;;;;;;;;;;422135;23;1314;-86
2024/03/18 00:10:04;;;;;;;;;;;;;;;;;;422314;23;1315;-86
2024/03/18 00:10:14;;;;;;;;;;;;;;;;;;419986;23;1175;-86
2024/03/18 00:10:24;;;;;;;;;;;;;;;;;;416309;23;1324;-87
2024/03/18 00:10:35;;;;;;;;;;;;;;;;;;416131;23;824;-87
2024/03/18 00:10:45;;;;;;;;;;;;;;;;;;415892;23;1006;-87
2024/03/18 00:10:55;;;;;;;;;;;;;;;;;;417965;23;1231;-86
2024/03/18 00:11:06;;;;;;;;;;;;;;;;;;418426;23;970;-86
2024/03/18 00:11:17;;;;;;;;;;;;;;;;;;416013;23;1157;-86
2024/03/18 00:11:27;;;;;;;;;;;;;;;;;;414443;23;1260;-86
2024/03/18 00:11:37;;;;;;;;;;;;;;;;;;414163;23;1186;-86
2024/03/18 00:11:47;;;;;;;;;;;;;;;;;;418083;23;1288;-86
2024/03/18 00:11:57;;;;;;;;;;;;;;;;;;417935;23;1362;-87
2024/03/18 00:12:08;;;;;;;;;;;;;;;;;;418275;23;983;-86
2024/03/18 00:12:18;;;;;;;;;;;;;;;;;;418184;23;1049;-86
2024/03/18 00:12:28;;;;;;;;;;;;;;;;;;418246;23;987;-86
2024/03/18 00:12:39;;;;;;;;;;;;;;;;;;418295;23;927;-86
2024/03/18 00:12:49;;;;;;;;;;;;;;;;;;418246;23;1253;-86
2024/03/18 00:12:59;;;;;;;;;;;;;;;;;;418096;23;1311;-87
2024/03/18 00:13:10;;;;;;;;;;;;;;;;;;418348;23;1285;-87
2024/03/18 00:13:20;;;;;;;;;;;;;;;;;;418166;23;982;-86
2024/03/18 00:13:30;;;;;;;;;;;;;;;;;;416445;23;803;-86
2024/03/18 00:13:40;;;;;;;;;;;;;;;;;;419880;23;1443;-86
2024/03/18 00:13:51;;;;;;;;;;;;;;;;;;422459;23;966;-86
2024/03/18 00:14:02;;;;;;;;;;;;;;;;;;422052;23;1367;-86
2024/03/18 00:14:13;;;;;;;;;;;;;;;;;;420350;23;997;-87
2024/03/18 00:14:23;;;;;;;;;;;;;;;;;;419974;23;1170;-86
2024/03/18 00:14:33;;;;;;;;;;;;;;;;;;418417;23;987;-86
2024/03/18 00:14:44;;;;;;;;;;;;;;;;;;419267;23;1169;-86
2024/03/18 00:14:54;;;;;;;;;;;;;;;;;;418345;23;1217;-86
2024/03/18 00:15:06;;;;;;;;;;;;;;;;;;418142;23;931;-87
2024/03/18 00:15:17;;;;;;;;;;;;;;;;;;418147;23;978;-87
2024/03/18 00:15:27;;;;;;;;;;;;;;;;;;420058;23;1206;-86
2024/03/18 00:15:37;;;;;;;;;;;;;;;;;;418264;23;1258;-86
2024/03/18 00:15:47;;;;;;;;;;;;;;;;;;418126;23;927;-86
2024/03/18 00:15:58;;;;;;;;;;;;;;;;;;420423;23;891;-87
2024/03/18 00:16:08;;;;;;;;;;;;;;;;;;417970;23;1257;-87
2024/03/18 00:16:18;;;;;;;;;;;;;;;;;;420288;23;1151;-86
2024/03/18 00:16:29;;;;;;;;;;;;;;;;;;420096;23;951;-87
2024/03/18 00:16:39;;;;;;;;;;;;;;;;;;420346;23;1367;-86
2024/03/18 00:16:49;;;;;;;;;;;;;;;;;;420059;23;1173;-86
2024/03/18 00:17:00;;;;;;;;;;;;;;;;;;420237;23;1343;-86
2024/03/18 00:17:10;;;;;;;;;;;;;;;;;;420182;23;819;-86
2024/03/18 00:17:20;;;;;;;;;;;;;;;;;;420406;23;974;-86
2024/03/18 00:17:31;;;;;;;;;;;;;;;;;;422032;23;1284;-86
2024/03/18 00:17:41;;;;;;;;;;;;;;;;;;421612;23;1018;-86
2024/03/18 00:17:52;;;;;;;;;;;;;;;;;;420005;23;1192;-86
2024/03/18 00:18:03;;;;;;;;;;;;;;;;;;414389;23;999;-86
2024/03/18 00:18:13;;;;;;;;;;;;;;;;;;416047;23;1215;-86
2024/03/18 00:18:24;;;;;;;;;;;;;;;;;;420195;23;1265;-86
2024/03/18 00:18:34;;;;;;;;;;;;;;;;;;419986;23;982;-86
2024/03/18 00:18:44;;;;;;;;;;;;;;;;;;421082;23;1153;-86
2024/03/18 00:18:54;;;;;;;;;;;;;;;;;;422044;23;1005;-86
2024/03/18 00:19:04;;;;;;;;;;;;;;;;;;420300;23;1292;-86
2024/03/18 00:19:15;;;;;;;;;;;;;;;;;;418107;23;1244;-86
2024/03/18 00:19:25;;;;;;;;;;;;;;;;;;416421;23;951;-86
2024/03/18 00:19:36;;;;;;;;;;;;;;;;;;416132;23;899;-87
2024/03/18 00:19:48;;;;;;;;;;;;;;;;;;416429;23;1003;-87
2024/03/18 00:19:58;;;;;;;;;;;;;;;;;;418100;23;943;-87
2024/03/18 00:20:12;;;;;;;;;;;;;;;;;;418232;23;911;-87
2024/03/18 00:20:22;;;;;;;;;;;;;;;;;;418046;23;951;-87
2024/03/18 00:20:32;;;;;;;;;;;;;;;;;;420168;23;1258;-87
2024/03/18 00:20:43;;;;;;;;;;;;;;;;;;421011;23;883;-87
2024/03/18 00:20:53;;;;;;;;;;;;;;;;;;420281;23;1327;-87
2024/03/18 00:21:03;;;;;;;;;;;;;;;;;;418020;23;1197;-86
2024/03/18 00:21:14;;;;;;;;;;;;;;;;;;418299;23;1177;-87
2024/03/18 00:21:24;;;;;;;;;;;;;;;;;;418158;23;1304;-86
2024/03/18 00:21:36;;;;;;;;;;;;;;;;;;418348;23;1022;-87
2024/03/18 00:21:46;;;;;;;;;;;;;;;;;;418044;23;1024;-87
2024/03/18 00:21:56;;;;;;;;;;;;;;;;;;418232;23;1428;-87
2024/03/18 00:22:06;;;;;;;;;;;;;;;;;;418078;23;1248;-87
2024/03/18 00:22:17;;;;;;;;;;;;;;;;;;418462;23;788;-86
2024/03/18 00:22:27;;;;;;;;;;;;;;;;;;417760;23;1204;-87
2024/03/18 00:22:38;;;;;;;;;;;;;;;;;;420277;23;1228;-87
2024/03/18 00:22:48;;;;;;;;;;;;;;;;;;422117;23;949;-86
2024/03/18 00:22:59;;;;;;;;;;;;;;;;;;422084;23;1069;-87
2024/03/18 00:23:09;;;;;;;;;;;;;;;;;;422089;23;966;-86
2024/03/18 00:23:20;;;;;;;;;;;;;;;;;;422301;23;1231;-86
2024/03/18 00:23:30;;;;;;;;;;;;;;;;;;419934;23;1166;-87
2024/03/18 00:23:41;;;;;;;;;;;;;;;;;;420182;23;1305;-86
2024/03/18 00:23:51;;;;;;;;;;;;;;;;;;420269;23;764;-86
2024/03/18 00:24:01;;;;;;;;;;;;;;;;;;420316;23;1157;-86
2024/03/18 00:24:11;;;;;;;;;;;;;;;;;;416105;23;1259;-87
2024/03/18 00:24:22;;;;;;;;;;;;;;;;;;416455;23;990;-86
2024/03/18 00:24:32;;;;;;;;;;;;;;;;;;418056;23;895;-86
2024/03/18 00:24:43;;;;;;;;;;;;;;;;;;417671;23;812;-87
2024/03/18 00:24:53;;;;;;;;;;;;;;;;;;420050;23;1324;-87
2024/03/18 00:25:03;;;;;;;;;;;;;;;;;;420268;23;1037;-87
2024/03/18 00:25:13;;;;;;;;;;;;;;;;;;421937;23;1271;-86
2024/03/18 00:25:24;;;;;;;;;;;;;;;;;;421878;23;942;-87
2024/03/18 00:25:34;;;;;;;;;;;;;;;;;;420087;23;868;-86
2024/03/18 00:25:45;;;;;;;;;;;;;;;;;;420269;23;1325;-87
2024/03/18 00:25:55;;;;;;;;;;;;;;;;;;420056;23;1301;-86
2024/03/18 00:26:05;;;;;;;;;;;;;;;;;;418395;23;974;-87
2024/03/18 00:26:16;;;;;;;;;;;;;;;;;;420076;23;1157;-87
2024/03/18 00:26:26;;;;;;;;;;;;;;;;;;424356;23;1256;-87
2024/03/18 00:26:36;;;;;;;;;;;;;;;;;;420026;23;1177;-87
2024/03/18 00:26:46;;;;;;;;;;;;;;;;;;420378;23;974;-87
2024/03/18 00:26:56;;;;;;;;;;;;;;;;;;420021;23;990;-87
2024/03/18 00:27:07;;;;;;;;;;;;;;;;;;420205;23;1423;-87
2024/03/18 00:27:17;;;;;;;;;;;;;;;;;;419893;23;1902;-87
2024/03/18 00:27:27;;;;;;;;;;;;;;;;;;420250;23;1157;-87
2024/03/18 00:27:38;;;;;;;;;;;;;;;;;;420027;23;1335;-87
2024/03/18 00:27:48;;;;;;;;;;;;;;;;;;422407;23;1010;-87
2024/03/18 00:27:58;;;;;;;;;;;;;;;;;;421812;23;962;-86
2024/03/18 00:28:10;;;;;;;;;;;;;;;;;;420231;23;1169;-87
2024/03/18 00:28:20;;;;;;;;;;;;;;;;;;420018;23;1142;-87
2024/03/18 00:28:31;;;;;;;;;;;;;;;;;;420414;23;926;-87
2024/03/18 00:28:43;;;;;;;;;;;;;;;;;;420191;23;930;-87
2024/03/18 00:28:53;;;;;;;;;;;;;;;;;;420331;23;1045;-87
2024/03/18 00:29:04;;;;;;;;;;;;;;;;;;424009;23;1161;-87
2024/03/18 00:29:14;;;;;;;;;;;;;;;;;;422332;23;1201;-88
2024/03/18 00:29:24;;;;;;;;;;;;;;;;;;422033;23;997;-87
2024/03/18 00:29:34;;;;;;;;;;;;;;;;;;422358;23;1037;-87
2024/03/18 00:29:44;;;;;;;;;;;;;;;;;;422044;23;1358;-87
2024/03/18 00:29:55;;;;;;;;;;;;;;;;;;420106;23;1177;-87
2024/03/18 00:30:06;;;;;;;;;;;;;;;;;;418081;23;1263;-86
2024/03/18 00:30:17;;;;;;;;;;;;;;;;;;418491;23;969;-87
2024/03/18 00:30:27;;;;;;;;;;;;;;;;;;419900;23;1145;-87
2024/03/18 00:30:37;;;;;;;;;;;;;;;;;;420395;23;954;-87
2024/03/18 00:30:47;;;;;;;;;;;;;;;;;;418058;23;1205;-87
2024/03/18 00:30:58;;;;;;;;;;;;;;;;;;419887;23;1303;-87
2024/03/18 00:31:08;;;;;;;;;;;;;;;;;;418213;23;1010;-87
2024/03/18 00:31:18;;;;;;;;;;;;;;;;;;420326;23;1130;-87
2024/03/18 00:31:28;;;;;;;;;;;;;;;;;;420168;23;927;-86
2024/03/18 00:31:38;;;;;;;;;;;;;;;;;;420320;23;982;-86
2024/03/18 00:31:49;;;;;;;;;;;;;;;;;;419817;23;1014;-87
2024/03/18 00:31:59;;;;;;;;;;;;;;;;;;418134;23;1289;-86
2024/03/18 00:32:09;;;;;;;;;;;;;;;;;;418270;23;1182;-86
2024/03/18 00:32:19;;;;;;;;;;;;;;;;;;418159;23;942;-87
2024/03/18 00:32:30;;;;;;;;;;;;;;;;;;420106;23;1316;-87
2024/03/18 00:32:40;;;;;;;;;;;;;;;;;;421874;23;1280;-87
2024/03/18 00:32:50;;;;;;;;;;;;;;;;;;420270;23;1440;-87
2024/03/18 00:33:00;;;;;;;;;;;;;;;;;;420095;23;974;-87
2024/03/18 00:33:11;;;;;;;;;;;;;;;;;;420304;23;989;-86
2024/03/18 00:33:21;;;;;;;;;;;;;;;;;;419995;23;1398;-86
2024/03/18 00:33:31;;;;;;;;;;;;;;;;;;419428;23;1197;-86
2024/03/18 00:33:41;;;;;;;;;;;;;;;;;;419923;23;1332;-87
2024/03/18 00:33:52;;;;;;;;;;;;;;;;;;422180;23;1272;-87
2024/03/18 00:34:02;;;;;;;;;;;;;;;;;;421867;23;1381;-87
2024/03/18 00:34:13;;;;;;;;;;;;;;;;;;422187;23;779;-87
2024/03/18 00:34:23;;;;;;;;;;;;;;;;;;421964;23;1151;-87
2024/03/18 00:34:34;;;;;;;;;;;;;;;;;;420232;23;1262;-86
2024/03/18 00:34:44;;;;;;;;;;;;;;;;;;420039;23;776;-86
2024/03/18 00:34:54;;;;;;;;;;;;;;;;;;420164;23;950;-87
2024/03/18 00:35:05;;;;;;;;;;;;;;;;;;422045;23;1241;-86
2024/03/18 00:35:15;;;;;;;;;;;;;;;;;;422387;23;1046;-86
2024/03/18 00:35:26;;;;;;;;;;;;;;;;;;420073;23;1167;-86
2024/03/18 00:35:36;;;;;;;;;;;;;;;;;;418384;23;1017;-87
2024/03/18 00:35:46;;;;;;;;;;;;;;;;;;418022;23;1058;-86
2024/03/18 00:35:57;;;;;;;;;;;;;;;;;;416389;23;939;-86
2024/03/18 00:36:07;;;;;;;;;;;;;;;;;;419996;23;1192;-85
2024/03/18 00:36:18;;;;;;;;;;;;;;;;;;422180;23;1314;-86
2024/03/18 00:36:29;;;;;;;;;;;;;;;;;;421837;23;1267;-87
2024/03/18 00:36:39;;;;;;;;;;;;;;;;;;416275;23;1272;-87
2024/03/18 00:36:50;;;;;;;;;;;;;;;;;;416210;23;994;-86
2024/03/18 00:37:00;;;;;;;;;;;;;;;;;;416362;23;1058;-87
2024/03/18 00:37:10;;;;;;;;;;;;;;;;;;417827;23;1245;-87
2024/03/18 00:37:20;;;;;;;;;;;;;;;;;;420214;23;1264;-87
2024/03/18 00:37:30;;;;;;;;;;;;;;;;;;420097;23;994;-87
2024/03/18 00:37:41;;;;;;;;;;;;;;;;;;420858;23;982;-87
2024/03/18 00:37:51;;;;;;;;;;;;;;;;;;420048;23;1161;-87
2024/03/18 00:38:01;;;;;;;;;;;;;;;;;;416169;23;1191;-87
2024/03/18 00:38:11;;;;;;;;;;;;;;;;;;416093;23;793;-87
2024/03/18 00:38:59;;;;;;;;;;;;;;;;;;420202;23;1340;-87
2024/03/18 00:39:09;;;;;;;;;;;;;;;;;;417419;23;1197;-87
2024/03/18 00:39:19;;;;;;;;;;;;;;;;;;417722;23;796;-87
2024/03/18 00:39:30;;;;;;;;;;;;;;;;;;418238;23;1157;-86
2024/03/18 00:39:40;;;;;;;;;;;;;;;;;;418051;23;994;-87
2024/03/18 00:39:50;;;;;;;;;;;;;;;;;;418269;23;994;-87
2024/03/18 00:40:00;;;;;;;;;;;;;;;;;;419675;23;1029;-87
2024/03/18 00:40:11;;;;;;;;;;;;;;;;;;420317;23;1241;-87
2024/03/18 00:40:21;;;;;;;;;;;;;;;;;;422062;23;1268;-87
2024/03/18 00:40:31;;;;;;;;;;;;;;;;;;422470;23;812;-87
2024/03/18 00:40:42;;;;;;;;;;;;;;;;;;422906;23;796;-87
2024/03/18 00:41:52;;;;;;;;;;;;;;;;;;420218;23;1334;-87
2024/03/18 00:42:02;;;;;;;;;;;;;;;;;;421990;23;1225;-87
2024/03/18 00:42:13;;;;;;;;;;;;;;;;;;420177;23;1251;-87
2024/03/18 00:42:23;;;;;;;;;;;;;;;;;;419672;23;1288;-86
2024/03/18 00:42:33;;;;;;;;;;;;;;;;;;420602;23;1148;-87
2024/03/18 00:42:44;;;;;;;;;;;;;;;;;;420095;23;1146;-86
2024/03/18 00:42:54;;;;;;;;;;;;;;;;;;422446;23;1172;-87
2024/03/18 00:43:04;;;;;;;;;;;;;;;;;;421923;23;1186;-86
2024/03/18 00:43:15;;;;;;;;;;;;;;;;;;422058;23;1322;-86
2024/03/18 00:43:25;;;;;;;;;;;;;;;;;;420079;23;1223;-87
2024/03/18 00:43:35;;;;;;;;;;;;;;;;;;418476;23;969;-86
2024/03/18 00:43:45;;;;;;;;;;;;;;;;;;418315;23;887;-87
2024/03/18 00:43:55;;;;;;;;;;;;;;;;;;420378;23;989;-87
2024/03/18 00:44:06;;;;;;;;;;;;;;;;;;420266;23;1009;-87
2024/03/18 00:44:17;;;;;;;;;;;;;;;;;;418568;23;954;-86
2024/03/18 00:44:28;;;;;;;;;;;;;;;;;;417942;23;1154;-87
2024/03/18 00:44:38;;;;;;;;;;;;;;;;;;420096;23;1400;-87
2024/03/18 00:44:48;;;;;;;;;;;;;;;;;;424649;23;1282;-87
2024/03/18 00:44:59;;;;;;;;;;;;;;;;;;422457;23;843;-87
2024/03/18 00:45:10;;;;;;;;;;;;;;;;;;422189;23;954;-86
2024/03/18 00:45:20;;;;;;;;;;;;;;;;;;418285;23;1347;-87
2024/03/18 00:45:31;;;;;;;;;;;;;;;;;;416187;23;962;-87
2024/03/18 00:45:41;;;;;;;;;;;;;;;;;;418368;23;1237;-87
2024/03/18 00:45:51;;;;;;;;;;;;;;;;;;418103;23;1281;-87
2024/03/18 00:46:01;;;;;;;;;;;;;;;;;;420070;23;1540;-86
2024/03/18 00:46:12;;;;;;;;;;;;;;;;;;417821;23;763;-87
2024/03/18 00:46:22;;;;;;;;;;;;;;;;;;418264;23;1216;-86
2024/03/18 00:46:32;;;;;;;;;;;;;;;;;;416044;23;1146;-87
2024/03/18 00:46:44;;;;;;;;;;;;;;;;;;417949;23;1288;-86
2024/03/18 00:46:57;;;;;;;;;;;;;;;;;;420196;23;954;-87
2024/03/18 00:47:07;;;;;;;;;;;;;;;;;;420483;23;1065;-87
2024/03/18 00:47:18;;;;;;;;;;;;;;;;;;420128;23;1945;-87
2024/03/18 00:47:28;;;;;;;;;;;;;;;;;;420565;23;950;-87
2024/03/18 00:47:38;;;;;;;;;;;;;;;;;;418280;23;800;-87
2024/03/18 00:47:49;;;;;;;;;;;;;;;;;;420521;23;1294;-87
2024/03/18 00:47:59;;;;;;;;;;;;;;;;;;420292;23;820;-87
2024/03/18 00:48:09;;;;;;;;;;;;;;;;;;418425;23;1260;-86
2024/03/18 00:48:19;;;;;;;;;;;;;;;;;;418239;23;907;-87
2024/03/18 00:48:30;;;;;;;;;;;;;;;;;;420319;23;1267;-87
2024/03/18 00:48:40;;;;;;;;;;;;;;;;;;416048;23;1263;-87
2024/03/18 00:48:50;;;;;;;;;;;;;;;;;;416395;23;943;-87
2024/03/18 00:49:04;;;;;;;;;;;;;;;;;;416042;23;1003;-86
2024/03/18 00:49:14;;;;;;;;;;;;;;;;;;416313;23;1186;-86
2024/03/18 00:49:25;;;;;;;;;;;;;;;;;;416070;23;1053;-87
2024/03/18 00:49:35;;;;;;;;;;;;;;;;;;414460;23;815;-87
2024/03/18 00:49:45;;;;;;;;;;;;;;;;;;417302;23;1271;-87
2024/03/18 00:49:56;;;;;;;;;;;;;;;;;;416319;23;1734;-87
2024/03/18 00:50:10;;;;;;;;;;;;;;;;;;416276;23;1005;-87
2024/03/18 00:50:21;;;;;;;;;;;;;;;;;;417730;23;1301;-87
2024/03/18 00:50:31;;;;;;;;;;;;;;;;;;416100;23;1171;-87
2024/03/18 00:50:41;;;;;;;;;;;;;;;;;;421177;23;732;-86
2024/03/18 00:50:51;;;;;;;;;;;;;;;;;;422221;23;1161;-87
2024/03/18 00:51:02;;;;;;;;;;;;;;;;;;420366;23;1244;-87
2024/03/18 00:51:12;;;;;;;;;;;;;;;;;;420327;23;1146;-87
2024/03/18 00:51:22;;;;;;;;;;;;;;;;;;420667;23;818;-87
2024/03/18 00:51:33;;;;;;;;;;;;;;;;;;420237;23;1040;-87
2024/03/18 00:51:43;;;;;;;;;;;;;;;;;;420399;23;1005;-87
2024/03/18 00:51:54;;;;;;;;;;;;;;;;;;422333;23;929;-87
2024/03/18 00:52:04;;;;;;;;;;;;;;;;;;420625;23;1005;-87
2024/03/18 00:52:15;;;;;;;;;;;;;;;;;;420018;23;1148;-87
2024/03/18 00:52:25;;;;;;;;;;;;;;;;;;420471;23;997;-87
2024/03/18 00:52:35;;;;;;;;;;;;;;;;;;420149;23;906;-87
2024/03/18 00:52:45;;;;;;;;;;;;;;;;;;420396;23;1068;-87
2024/03/18 00:52:55;;;;;;;;;;;;;;;;;;420200;23;1021;-87
2024/03/18 00:53:07;;;;;;;;;;;;;;;;;;415616;23;1321;-87
2024/03/18 00:53:17;;;;;;;;;;;;;;;;;;417969;23;1001;-87
2024/03/18 00:53:27;;;;;;;;;;;;;;;;;;418192;23;875;-87
2024/03/18 00:53:38;;;;;;;;;;;;;;;;;;418000;23;1217;-87
2024/03/18 00:53:48;;;;;;;;;;;;;;;;;;418236;23;1165;-86
2024/03/18 00:53:58;;;;;;;;;;;;;;;;;;418261;23;1093;-87
2024/03/18 00:54:11;;;;;;;;;;;;;;;;;;418440;23;1017;-87
2024/03/18 00:54:23;;;;;;;;;;;;;;;;;;417995;23;1321;-87
2024/03/18 00:54:35;;;;;;;;;;;;;;;;;;422272;23;961;-87
2024/03/18 00:54:45;;;;;;;;;;;;;;;;;;422400;23;1291;-87
2024/03/18 00:54:55;;;;;;;;;;;;;;;;;;418192;23;1253;-87
2024/03/18 00:55:10;;;;;;;;;;;;;;;;;;418402;23;950;-87
2024/03/18 00:55:20;;;;;;;;;;;;;;;;;;419656;23;966;-87
2024/03/18 00:55:33;;;;;;;;;;;;;;;;;;422185;23;1159;-87
2024/03/18 00:55:43;;;;;;;;;;;;;;;;;;416134;23;1594;-87
2024/03/18 00:55:53;;;;;;;;;;;;;;;;;;418271;23;1294;-87
2024/03/18 00:56:07;;;;;;;;;;;;;;;;;;417757;23;915;-86
2024/03/18 00:56:17;;;;;;;;;;;;;;;;;;418326;23;1197;-87
2024/03/18 00:56:27;;;;;;;;;;;;;;;;;;415800;23;1141;-87
2024/03/18 00:56:38;;;;;;;;;;;;;;;;;;418229;23;1414;-87
2024/03/18 00:56:48;;;;;;;;;;;;;;;;;;419705;23;1173;-87
2024/03/18 00:56:58;;;;;;;;;;;;;;;;;;418358;23;1185;-87
2024/03/18 00:57:09;;;;;;;;;;;;;;;;;;415987;23;985;-87
2024/03/18 00:57:19;;;;;;;;;;;;;;;;;;416363;23;1175;-87
2024/03/18 00:57:29;;;;;;;;;;;;;;;;;;416044;23;981;-87
2024/03/18 00:57:39;;;;;;;;;;;;;;;;;;418232;23;1276;-86
2024/03/18 00:57:49;;;;;;;;;;;;;;;;;;418144;23;958;-87
2024/03/18 00:58:00;;;;;;;;;;;;;;;;;;418438;23;993;-86
2024/03/18 00:58:10;;;;;;;;;;;;;;;;;;420066;23;962;-87
2024/03/18 00:58:20;;;;;;;;;;;;;;;;;;418380;23;1152;-87
2024/03/18 00:58:30;;;;;;;;;;;;;;;;;;418284;23;1009;-87
2024/03/18 00:58:41;;;;;;;;;;;;;;;;;;418853;23;923;-86
2024/03/18 00:58:51;;;;;;;;;;;;;;;;;;420347;23;1142;-87
2024/03/18 00:59:01;;;;;;;;;;;;;;;;;;418338;23;1206;-87
2024/03/18 00:59:11;;;;;;;;;;;;;;;;;;416408;23;1049;-87
2024/03/18 00:59:22;;;;;;;;;;;;;;;;;;416520;23;1184;-87
2024/03/18 00:59:32;;;;;;;;;;;;;;;;;;418472;23;949;-87
2024/03/18 00:59:42;;;;;;;;;;;;;;;;;;416807;23;966;-87
2024/03/18 00:59:52;;;;;;;;;;;;;;;;;;416292;23;1307;-87
2024/03/18 01:00:06;;;;;;;;;;;;;;;;;;420207;23;1153;-87
2024/03/18 01:00:18;;;;;;;;;;;;;;;;;;413593;23;1150;-86
2024/03/18 01:00:28;;;;;;;;;;;;;;;;;;416139;23;1253;-87
2024/03/18 01:00:38;;;;;;;;;;;;;;;;;;417977;23;1341;-87
2024/03/18 01:00:49;;;;;;;;;;;;;;;;;;420456;23;934;-87
2024/03/18 01:01:02;;;;;;;;;;;;;;;;;;418008;23;1195;-87
2024/03/18 01:01:12;;;;;;;;;;;;;;;;;;416186;23;1164;-87
2024/03/18 01:01:23;;;;;;;;;;;;;;;;;;416118;23;1285;-87
2024/03/18 01:01:34;;;;;;;;;;;;;;;;;;414419;23;954;-87
2024/03/18 01:01:44;;;;;;;;;;;;;;;;;;416273;23;1320;-87
2024/03/18 01:01:54;;;;;;;;;;;;;;;;;;416303;23;1218;-87
2024/03/18 01:02:05;;;;;;;;;;;;;;;;;;414156;23;1060;-87
2024/03/18 01:02:15;;;;;;;;;;;;;;;;;;416443;23;1226;-87
2024/03/18 01:02:25;;;;;;;;;;;;;;;;;;416432;23;1021;-86
2024/03/18 01:02:35;;;;;;;;;;;;;;;;;;414579;23;1286;-86
2024/03/18 01:02:46;;;;;;;;;;;;;;;;;;415698;23;1268;-87
2024/03/18 01:02:56;;;;;;;;;;;;;;;;;;418527;23;1157;-87
2024/03/18 01:03:07;;;;;;;;;;;;;;;;;;420540;23;950;-86
2024/03/18 01:03:17;;;;;;;;;;;;;;;;;;420685;23;993;-87
2024/03/18 01:03:28;;;;;;;;;;;;;;;;;;418579;23;1274;-87
2024/03/18 01:03:38;;;;;;;;;;;;;;;;;;420704;23;1176;-87
2024/03/18 01:03:48;;;;;;;;;;;;;;;;;;420725;23;752;-87
2024/03/18 01:04:03;;;;;;;;;;;;;;;;;;418532;23;1241;-87
2024/03/18 01:04:13;;;;;;;;;;;;;;;;;;418658;23;1320;-87
2024/03/18 01:04:23;;;;;;;;;;;;;;;;;;416194;23;1148;-87
2024/03/18 01:04:33;;;;;;;;;;;;;;;;;;416545;23;1220;-86
2024/03/18 01:04:44;;;;;;;;;;;;;;;;;;419350;23;1234;-87
2024/03/18 01:04:54;;;;;;;;;;;;;;;;;;418728;23;946;-87
2024/03/18 01:05:06;;;;;;;;;;;;;;;;;;418234;23;1166;-87
2024/03/18 01:05:17;;;;;;;;;;;;;;;;;;418400;23;1327;-87
2024/03/18 01:05:27;;;;;;;;;;;;;;;;;;420111;23;1399;-86
2024/03/18 01:05:37;;;;;;;;;;;;;;;;;;420369;23;902;-86
2024/03/18 01:05:47;;;;;;;;;;;;;;;;;;419895;23;1191;-87
2024/03/18 01:05:58;;;;;;;;;;;;;;;;;;422474;23;1282;-87
2024/03/18 01:06:08;;;;;;;;;;;;;;;;;;420278;23;1209;-86
2024/03/18 01:06:18;;;;;;;;;;;;;;;;;;414799;23;979;-87
2024/03/18 01:06:29;;;;;;;;;;;;;;;;;;416342;23;1419;-87
2024/03/18 01:06:40;;;;;;;;;;;;;;;;;;416817;23;1045;-87
2024/03/18 01:06:50;;;;;;;;;;;;;;;;;;420185;23;1249;-87
2024/03/18 01:07:01;;;;;;;;;;;;;;;;;;422494;23;1201;-86
2024/03/18 01:07:12;;;;;;;;;;;;;;;;;;421879;23;973;-87
2024/03/18 01:07:22;;;;;;;;;;;;;;;;;;422632;23;1898;-87
2024/03/18 01:07:32;;;;;;;;;;;;;;;;;;422335;23;1243;-87
2024/03/18 01:07:43;;;;;;;;;;;;;;;;;;420675;23;1270;-87
2024/03/18 01:07:53;;;;;;;;;;;;;;;;;;424407;23;1252;-86
2024/03/18 01:08:04;;;;;;;;;;;;;;;;;;422667;23;1021;-87
2024/03/18 01:08:14;;;;;;;;;;;;;;;;;;422366;23;977;-87
2024/03/18 01:08:24;;;;;;;;;;;;;;;;;;420593;23;1163;-87
2024/03/18 01:08:34;;;;;;;;;;;;;;;;;;420036;23;1182;-87
2024/03/18 01:08:46;;;;;;;;;;;;;;;;;;420413;23;827;-87
2024/03/18 01:08:56;;;;;;;;;;;;;;;;;;419970;23;1288;-87
2024/03/18 01:09:07;;;;;;;;;;;;;;;;;;418174;23;1185;-87
2024/03/18 01:09:17;;;;;;;;;;;;;;;;;;416070;23;1081;-87
2024/03/18 01:09:28;;;;;;;;;;;;;;;;;;416440;23;978;-87
2024/03/18 01:09:40;;;;;;;;;;;;;;;;;;418147;23;717;-87
2024/03/18 01:09:50;;;;;;;;;;;;;;;;;;420369;23;1174;-87
2024/03/18 01:10:00;;;;;;;;;;;;;;;;;;419888;23;1283;-87
2024/03/18 01:10:11;;;;;;;;;;;;;;;;;;420473;23;958;-87
2024/03/18 01:10:21;;;;;;;;;;;;;;;;;;420062;23;1009;-87
2024/03/18 01:10:32;;;;;;;;;;;;;;;;;;422443;23;1213;-86
2024/03/18 01:10:42;;;;;;;;;;;;;;;;;;422317;23;736;-87
2024/03/18 01:10:52;;;;;;;;;;;;;;;;;;420524;23;1363;-87
2024/03/18 01:11:02;;;;;;;;;;;;;;;;;;418181;23;950;-86
2024/03/18 01:11:13;;;;;;;;;;;;;;;;;;418493;23;831;-87
2024/03/18 01:11:24;;;;;;;;;;;;;;;;;;414361;23;1154;-86
2024/03/18 01:11:34;;;;;;;;;;;;;;;;;;418471;23;1185;-86
2024/03/18 01:11:44;;;;;;;;;;;;;;;;;;418868;23;1389;-87
2024/03/18 01:11:55;;;;;;;;;;;;;;;;;;418531;23;1363;-86
2024/03/18 01:12:05;;;;;;;;;;;;;;;;;;418014;23;1048;-87
2024/03/18 01:12:15;;;;;;;;;;;;;;;;;;420310;23;1336;-87
2024/03/18 01:12:26;;;;;;;;;;;;;;;;;;420067;23;1146;-87
2024/03/18 01:12:37;;;;;;;;;;;;;;;;;;416332;23;1006;-87
2024/03/18 01:12:47;;;;;;;;;;;;;;;;;;415954;23;1291;-87
2024/03/18 01:12:58;;;;;;;;;;;;;;;;;;416253;23;1139;-87
2024/03/18 01:13:11;;;;;;;;;;;;;;;;;;416112;23;1194;-86
2024/03/18 01:13:21;;;;;;;;;;;;;;;;;;416390;23;832;-87
2024/03/18 01:13:33;;;;;;;;;;;;;;;;;;416013;23;1262;-87
2024/03/18 01:13:47;;;;;;;;;;;;;;;;;;414328;23;1267;-87
2024/03/18 01:13:57;;;;;;;;;;;;;;;;;;414056;23;1271;-87
2024/03/18 01:14:07;;;;;;;;;;;;;;;;;;412125;24;991;-87
2024/03/18 01:14:17;;;;;;;;;;;;;;;;;;413595;23;1229;-86
2024/03/18 01:14:28;;;;;;;;;;;;;;;;;;414397;23;1006;-86
2024/03/18 01:14:38;;;;;;;;;;;;;;;;;;414105;23;990;-87
2024/03/18 01:14:48;;;;;;;;;;;;;;;;;;414425;23;797;-87
2024/03/18 01:14:58;;;;;;;;;;;;;;;;;;413867;23;930;-87
2024/03/18 01:15:10;;;;;;;;;;;;;;;;;;416290;23;930;-86
2024/03/18 01:15:20;;;;;;;;;;;;;;;;;;417998;23;1173;-87
2024/03/18 01:15:30;;;;;;;;;;;;;;;;;;418385;23;1101;-87
2024/03/18 01:15:40;;;;;;;;;;;;;;;;;;417862;23;1178;-87
2024/03/18 01:15:51;;;;;;;;;;;;;;;;;;418340;23;1054;-87
2024/03/18 01:16:01;;;;;;;;;;;;;;;;;;418039;23;1260;-86
2024/03/18 01:16:11;;;;;;;;;;;;;;;;;;418447;23;839;-87
2024/03/18 01:16:24;;;;;;;;;;;;;;;;;;416073;23;1304;-87